Time;durP1;ratioP1;P1;durP2;ratioP2;P2;SDS_P1;SDS_P2;PMS_P1;PMS_P2;Temp;Humidity;BMP_temperature;BMP_pressure;BME280_temperature;BME280_humidity;BME280_pressure;Samples;Min_cycle;Max_cycle;Signal;HPM_P1;HPM_P2
2023/11/27 00:01:41;;;;;;;3.20;2.07;;;6.10;99.90;;;;;;5074672;28;20237;-67
2023/11/27 00:04:07;;;;;;;3.23;1.90;;;6.20;99.90;;;;;;5074851;28;20486;-66
2023/11/27 00:06:32;;;;;;;4.67;2.20;;;6.20;99.90;;;;;;5073836;28;20944;-67
2023/11/27 00:08:58;;;;;;;2.20;1.50;;;6.20;99.90;;;;;;5073709;28;20661;-68
2023/11/27 00:11:24;;;;;;;7.73;1.80;;;6.10;99.90;;;;;;5073253;28;20166;-69
2023/11/27 00:13:49;;;;;;;3.10;2.00;;;6.10;99.90;;;;;;5063897;28;20182;-67
2023/11/27 00:16:15;;;;;;;2.47;1.90;;;6.00;99.90;;;;;;5073656;28;20201;-67
2023/11/27 00:18:41;;;;;;;21.80;12.37;;;6.00;99.90;;;;;;5073877;28;20656;-67
2023/11/27 00:21:07;;;;;;;21.07;13.60;;;6.00;99.90;;;;;;5073788;28;20416;-68
2023/11/27 00:23:32;;;;;;;12.27;8.77;;;6.00;99.90;;;;;;5073832;28;20162;-67
2023/11/27 00:25:58;;;;;;;5.53;4.70;;;6.00;99.90;;;;;;5073633;28;20189;-68
2023/11/27 00:28:24;;;;;;;8.00;4.07;;;6.10;99.90;;;;;;5073400;28;20166;-67
2023/11/27 00:30:49;;;;;;;4.50;2.90;;;6.10;99.90;;;;;;5073404;28;20491;-68
2023/11/27 00:33:15;;;;;;;4.50;2.80;;;6.10;99.90;;;;;;5073656;28;20682;-68
2023/11/27 00:35:40;;;;;;;2.67;2.20;;;6.10;99.90;;;;;;5073397;28;20208;-68
2023/11/27 00:38:06;;;;;;;2.40;2.20;;;6.10;99.90;;;;;;5073569;28;20163;-68
2023/11/27 00:40:31;;;;;;;3.53;2.50;;;6.10;99.90;;;;;;5073361;28;20261;-68
2023/11/27 00:42:57;;;;;;;6.67;2.70;;;6.10;99.90;;;;;;5072865;28;20170;-68
2023/11/27 00:45:23;;;;;;;3.53;2.27;;;6.00;99.90;;;;;;5073461;28;20202;-68
2023/11/27 00:47:48;;;;;;;3.00;2.00;;;6.00;99.90;;;;;;5055475;28;20412;-68
2023/11/27 00:50:14;;;;;;;2.60;2.30;;;6.10;99.90;;;;;;5073244;28;20198;-67
2023/11/27 00:52:39;;;;;;;2.90;2.23;;;6.10;99.90;;;;;;5073080;28;20576;-67
2023/11/27 00:55:05;;;;;;;3.23;2.50;;;6.10;99.90;;;;;;5073149;28;20179;-68
2023/11/27 00:57:30;;;;;;;1.90;1.70;;;6.10;99.90;;;;;;5072938;28;20648;-67
2023/11/27 00:59:56;;;;;;;2.67;2.20;;;6.10;99.90;;;;;;5073066;28;20186;-67
2023/11/27 01:02:22;;;;;;;3.47;2.10;;;6.10;99.90;;;;;;5073010;28;20688;-67
2023/11/27 01:04:47;;;;;;;4.50;2.13;;;6.10;99.90;;;;;;5073015;28;20193;-68
2023/11/27 01:07:13;;;;;;;4.33;2.73;;;6.10;99.90;;;;;;5054540;28;20644;-67
2023/11/27 01:09:39;;;;;;;2.97;1.93;;;6.10;99.90;;;;;;5072784;28;20190;-67
2023/11/27 01:12:05;;;;;;;3.73;2.40;;;6.10;99.90;;;;;;5067930;28;20312;-68
2023/11/27 01:14:31;;;;;;;3.30;2.40;;;6.10;99.90;;;;;;5069873;28;20495;-67
2023/11/27 01:16:57;;;;;;;2.57;2.00;;;6.20;99.90;;;;;;5072236;28;20194;-67
2023/11/27 01:19:22;;;;;;;6.60;2.77;;;6.20;99.90;;;;;;5072664;28;20193;-67
2023/11/27 01:21:48;;;;;;;7.37;2.53;;;6.20;99.90;;;;;;5072617;28;20185;-67
2023/11/27 01:24:14;;;;;;;9.47;3.63;;;6.20;99.90;;;;;;5072432;28;20174;-67
2023/11/27 01:26:39;;;;;;;3.20;2.83;;;6.20;99.90;;;;;;5072378;28;20765;-67
2023/11/27 01:29:05;;;;;;;5.10;2.87;;;6.20;99.90;;;;;;5071261;28;20270;-67
2023/11/27 01:31:31;;;;;;;7.40;2.93;;;6.20;99.90;;;;;;5071267;28;20174;-67
2023/11/27 01:33:56;;;;;;;4.13;2.80;;;6.20;99.90;;;;;;5072493;28;20178;-67
2023/11/27 01:36:22;;;;;;;6.37;2.80;;;6.30;99.90;;;;;;5072241;28;20194;-67
2023/11/27 01:38:47;;;;;;;3.60;2.80;;;6.30;99.90;;;;;;5072323;28;20617;-67
2023/11/27 01:41:13;;;;;;;5.33;3.43;;;6.20;99.90;;;;;;5072057;28;20186;-67
2023/11/27 01:43:38;;;;;;;3.67;2.70;;;6.30;99.90;;;;;;5070983;28;20170;-67
2023/11/27 01:46:18;;;;;;;5.60;2.77;;;6.20;99.90;;;;;;5072143;28;20173;-67
2023/11/27 01:48:44;;;;;;;7.13;2.97;;;6.30;99.90;;;;;;5072208;28;20186;-67
2023/11/27 01:51:09;;;;;;;4.33;3.40;;;6.20;99.90;;;;;;5072126;28;20980;-67
2023/11/27 01:53:35;;;;;;;4.60;3.30;;;6.20;99.90;;;;;;5071865;28;20247;-67
2023/11/27 01:56:02;;;;;;;13.73;3.60;;;6.30;99.90;;;;;;5071824;28;20222;-67
2023/11/27 01:58:27;;;;;;;4.77;3.50;;;6.30;99.90;;;;;;5072119;28;20974;-67
2023/11/27 02:00:53;;;;;;;5.93;3.13;;;6.20;99.90;;;;;;5071874;28;20190;-67
2023/11/27 02:03:20;;;;;;;3.33;2.90;;;6.20;99.90;;;;;;5071985;28;20458;-67
2023/11/27 02:05:45;;;;;;;4.13;3.07;;;6.20;99.90;;;;;;5071886;28;20217;-67
2023/11/27 02:08:11;;;;;;;3.63;2.40;;;6.20;99.90;;;;;;5070641;28;20444;-68
2023/11/27 02:10:36;;;;;;;5.53;3.60;;;6.20;99.90;;;;;;5071814;28;20198;-68
2023/11/27 02:13:02;;;;;;;4.80;3.20;;;6.20;99.90;;;;;;5065158;28;20186;-68
2023/11/27 02:15:27;;;;;;;3.63;3.30;;;6.20;99.90;;;;;;5065142;28;20194;-67
2023/11/27 02:17:53;;;;;;;4.73;3.07;;;6.20;99.90;;;;;;5071626;28;20271;-68
2023/11/27 02:20:19;;;;;;;4.70;3.70;;;6.10;99.90;;;;;;5070957;28;20193;-67
2023/11/27 02:22:45;;;;;;;4.13;2.87;;;6.10;99.90;;;;;;5071288;28;20170;-68
2023/11/27 02:25:11;;;;;;;5.10;3.30;;;6.20;99.90;;;;;;5071842;28;20174;-68
2023/11/27 02:27:38;;;;;;;4.30;3.30;;;6.10;99.90;;;;;;5071644;28;20914;-67
2023/11/27 02:30:04;;;;;;;4.33;3.43;;;6.10;99.90;;;;;;5071760;28;20444;-68
2023/11/27 02:32:30;;;;;;;4.57;3.40;;;6.10;99.90;;;;;;5071660;28;20436;-68
2023/11/27 02:34:55;;;;;;;3.83;3.23;;;6.10;99.90;;;;;;5071696;28;20420;-67
2023/11/27 02:37:21;;;;;;;7.53;4.43;;;6.10;99.90;;;;;;5071395;28;20194;-68
2023/11/27 02:39:46;;;;;;;4.83;3.53;;;6.10;99.90;;;;;;5071602;28;20201;-68
2023/11/27 02:42:12;;;;;;;3.43;3.13;;;6.10;99.90;;;;;;5071454;28;20173;-67
2023/11/27 02:44:37;;;;;;;5.53;3.43;;;6.10;99.90;;;;;;5053681;28;20516;-68
2023/11/27 02:47:03;;;;;;;5.27;3.20;;;6.10;99.90;;;;;;5071480;28;20170;-67
2023/11/27 02:49:29;;;;;;;6.00;3.07;;;6.10;99.90;;;;;;5071920;28;20200;-67
2023/11/27 02:51:54;;;;;;;8.57;4.00;;;6.10;99.90;;;;;;5071928;28;20554;-67
2023/11/27 02:54:21;;;;;;;5.20;3.20;;;6.10;99.90;;;;;;5054304;28;20188;-68
2023/11/27 02:56:46;;;;;;;3.13;2.83;;;6.20;99.90;;;;;;5072093;28;20198;-68
2023/11/27 02:59:12;;;;;;;4.90;4.17;;;6.10;99.90;;;;;;5071969;28;20458;-68
2023/11/27 03:01:39;;;;;;;5.50;2.80;;;6.10;99.90;;;;;;5072199;28;20193;-68
2023/11/27 03:04:04;;;;;;;6.73;3.53;;;6.00;99.90;;;;;;5054162;28;20946;-68
2023/11/27 03:06:30;;;;;;;6.90;3.80;;;6.00;99.90;;;;;;5071478;28;20189;-67
2023/11/27 03:08:55;;;;;;;6.83;4.10;;;6.00;99.90;;;;;;5071009;28;20170;-68
2023/11/27 03:11:21;;;;;;;3.70;3.40;;;6.00;99.90;;;;;;5071198;28;20177;-68
2023/11/27 03:13:46;;;;;;;7.67;3.20;;;6.00;99.90;;;;;;5065634;28;20175;-67
2023/11/27 03:16:12;;;;;;;5.90;3.77;;;5.90;99.90;;;;;;5070683;28;20225;-68
2023/11/27 03:18:37;;;;;;;4.27;3.63;;;5.90;99.90;;;;;;5052956;28;20166;-67
2023/11/27 03:21:04;;;;;;;3.60;3.30;;;5.90;99.90;;;;;;5071077;28;20182;-67
2023/11/27 03:23:29;;;;;;;5.73;3.90;;;5.90;99.90;;;;;;5071286;28;20163;-68
2023/11/27 03:25:55;;;;;;;5.30;3.50;;;5.90;99.90;;;;;;5071022;28;20919;-67
2023/11/27 03:28:20;;;;;;;8.10;3.50;;;5.90;99.90;;;;;;5071186;28;20167;-67
2023/11/27 03:30:46;;;;;;;9.93;4.30;;;5.90;99.90;;;;;;5072040;28;20197;-67
2023/11/27 03:33:11;;;;;;;7.77;3.57;;;5.80;99.90;;;;;;5056668;28;20200;-67
2023/11/27 03:35:37;;;;;;;4.23;3.73;;;5.80;99.90;;;;;;5074565;28;20688;-67
2023/11/27 03:38:02;;;;;;;3.50;3.20;;;5.80;99.90;;;;;;5074541;28;20162;-67
2023/11/27 03:40:28;;;;;;;6.43;4.87;;;5.80;99.90;;;;;;5074587;28;20186;-67
2023/11/27 03:42:53;;;;;;;8.90;4.20;;;5.70;99.90;;;;;;5074646;28;20170;-67
2023/11/27 03:45:19;;;;;;;4.17;3.73;;;5.60;99.90;;;;;;5056627;28;20170;-67
2023/11/27 03:47:44;;;;;;;3.90;3.50;;;5.60;99.90;;;;;;5074201;28;20260;-67
2023/11/27 03:50:13;;;;;;;14.03;4.33;;;5.70;99.90;;;;;;5074603;28;20265;-67
2023/11/27 03:52:39;;;;;;;3.80;3.50;;;5.60;99.90;;;;;;5074305;28;20210;-67
2023/11/27 03:55:04;;;;;;;5.97;3.93;;;5.60;99.90;;;;;;5056435;28;20446;-67
2023/11/27 03:57:30;;;;;;;6.47;4.30;;;5.50;99.90;;;;;;5074113;28;20267;-68
2023/11/27 03:59:55;;;;;;;6.03;3.47;;;5.60;99.90;;;;;;5056247;28;20421;-67
2023/11/27 04:02:23;;;;;;;4.80;3.50;;;5.60;99.90;;;;;;5074001;28;20165;-67
2023/11/27 04:04:48;;;;;;;3.70;3.37;;;5.60;99.90;;;;;;5073968;28;20247;-67
2023/11/27 04:07:14;;;;;;;5.87;3.53;;;5.60;99.90;;;;;;5073860;28;20400;-67
2023/11/27 04:09:40;;;;;;;5.57;3.33;;;5.60;99.90;;;;;;5073952;28;20190;-67
2023/11/27 04:12:06;;;;;;;5.60;4.00;;;5.70;99.90;;;;;;5069813;28;20653;-67
2023/11/27 04:14:31;;;;;;;5.00;3.73;;;5.60;99.90;;;;;;5069184;28;20413;-67
2023/11/27 04:16:57;;;;;;;4.13;3.23;;;5.70;99.90;;;;;;5073608;28;20620;-68
2023/11/27 04:19:22;;;;;;;4.53;3.00;;;5.60;99.90;;;;;;5073690;28;20550;-67
2023/11/27 04:21:48;;;;;;;5.00;3.50;;;5.50;99.90;;;;;;5073425;28;20162;-67
2023/11/27 04:24:14;;;;;;;3.33;3.03;;;5.50;99.90;;;;;;5073875;28;20162;-67
2023/11/27 04:26:39;;;;;;;6.00;3.43;;;5.50;99.90;;;;;;5073681;28;20170;-68
2023/11/27 04:29:05;;;;;;;2.90;2.60;;;5.40;99.90;;;;;;5073706;28;20625;-67
2023/11/27 04:31:32;;;;;;;6.70;3.00;;;5.40;99.90;;;;;;5073742;28;20170;-68
2023/11/27 04:33:57;;;;;;;4.50;3.20;;;5.40;99.90;;;;;;5072220;28;20162;-67
2023/11/27 04:36:23;;;;;;;4.70;2.70;;;5.40;99.90;;;;;;5073349;28;20455;-67
2023/11/27 04:38:49;;;;;;;13.00;3.40;;;5.40;99.90;;;;;;5073601;28;20269;-67
2023/11/27 04:41:15;;;;;;;3.53;3.13;;;5.50;99.90;;;;;;5073214;28;20182;-67
2023/11/27 04:43:40;;;;;;;4.03;2.97;;;5.60;99.90;;;;;;5072714;28;20253;-67
2023/11/27 04:46:07;;;;;;;5.20;3.93;;;5.60;99.90;;;;;;5073207;28;20428;-68
2023/11/27 04:48:33;;;;;;;3.53;2.97;;;5.70;99.90;;;;;;5073303;28;20647;-67
2023/11/27 04:50:59;;;;;;;4.73;3.47;;;5.50;99.90;;;;;;5073186;28;20428;-67
2023/11/27 04:53:25;;;;;;;6.00;3.10;;;5.60;99.90;;;;;;5073087;28;20843;-67
2023/11/27 04:55:50;;;;;;;10.93;2.57;;;5.50;99.90;;;;;;5072829;28;20448;-67
2023/11/27 04:58:16;;;;;;;4.67;3.13;;;5.50;99.90;;;;;;5073030;28;20189;-68
2023/11/27 05:00:41;;;;;;;7.23;3.50;;;5.60;99.90;;;;;;5072893;28;20174;-68
2023/11/27 05:03:07;;;;;;;9.70;3.87;;;5.50;99.90;;;;;;5073031;28;20629;-67
2023/11/27 05:05:32;;;;;;;6.07;3.43;;;5.50;99.90;;;;;;5073016;28;20166;-68
2023/11/27 05:07:58;;;;;;;7.03;3.23;;;5.50;99.90;;;;;;5071543;28;20616;-67
2023/11/27 05:10:23;;;;;;;6.77;3.00;;;5.50;99.90;;;;;;5072824;28;20273;-67
2023/11/27 05:12:49;;;;;;;5.00;3.00;;;5.50;99.90;;;;;;5063567;28;20178;-67
2023/11/27 05:15:14;;;;;;;7.70;3.43;;;5.40;99.90;;;;;;5070906;28;20606;-67
2023/11/27 05:17:40;;;;;;;4.53;3.53;;;5.40;99.90;;;;;;5072520;28;20702;-68
2023/11/27 05:20:08;;;;;;;11.00;2.90;;;5.40;99.90;;;;;;5072492;28;20542;-67
2023/11/27 05:22:34;;;;;;;6.10;3.03;;;5.40;99.90;;;;;;5072870;28;20159;-67
2023/11/27 05:24:59;;;;;;;4.57;3.47;;;5.40;99.90;;;;;;5072629;28;20977;-67
2023/11/27 05:27:25;;;;;;;10.10;3.77;;;5.30;99.90;;;;;;5072443;28;20166;-68
2023/11/27 05:29:50;;;;;;;2.70;2.27;;;5.20;99.90;;;;;;5072528;28;20239;-67
2023/11/27 05:32:17;;;;;;;8.00;3.37;;;5.30;99.90;;;;;;5072373;28;20215;-68
2023/11/27 05:34:42;;;;;;;6.60;2.77;;;5.30;99.90;;;;;;5072535;28;20258;-68
2023/11/27 05:37:08;;;;;;;3.07;2.77;;;5.20;99.90;;;;;;5072216;28;20535;-68
2023/11/27 05:39:37;;;;;;;3.70;2.20;;;5.20;99.90;;;;;;5072280;28;20186;-68
2023/11/27 05:42:03;;;;;;;3.70;3.13;;;5.10;99.90;;;;;;5072268;28;20534;-68
2023/11/27 05:44:29;;;;;;;6.93;2.90;;;5.00;99.90;;;;;;5072341;28;20542;-68
2023/11/27 05:46:56;;;;;;;6.63;2.43;;;4.90;99.90;;;;;;5071692;28;20488;-68
2023/11/27 05:49:22;;;;;;;3.47;2.70;;;4.90;99.90;;;;;;5069108;28;20455;-68
2023/11/27 05:51:47;;;;;;;4.53;3.03;;;4.90;99.90;;;;;;5065751;28;20417;-68
2023/11/27 05:54:13;;;;;;;2.87;2.63;;;4.80;99.90;;;;;;5053854;28;20408;-68
2023/11/27 05:56:39;;;;;;;6.63;3.37;;;4.80;99.90;;;;;;5071912;28;20687;-68
2023/11/27 05:59:04;;;;;;;4.70;3.20;;;4.80;99.90;;;;;;5072023;28;20188;-69
2023/11/27 06:01:31;;;;;;;4.60;2.80;;;4.70;99.90;;;;;;5053878;28;20578;-70
2023/11/27 06:03:56;;;;;;;8.30;2.67;;;4.60;99.90;;;;;;5072069;28;20168;-71
2023/11/27 06:06:22;;;;;;;3.10;2.80;;;4.50;99.90;;;;;;5071855;28;20408;-72
2023/11/27 06:08:48;;;;;;;8.00;3.23;;;4.50;99.90;;;;;;5071928;28;20170;-73
2023/11/27 06:11:14;;;;;;;8.03;2.77;;;4.40;99.90;;;;;;5071892;28;20526;-71
2023/11/27 06:13:41;;;;;;;5.43;2.23;;;4.30;99.90;;;;;;5063714;28;20429;-71
2023/11/27 06:16:08;;;;;;;4.70;2.63;;;4.30;99.90;;;;;;5071463;28;20201;-70
2023/11/27 06:18:33;;;;;;;5.77;2.27;;;4.30;99.90;;;;;;5071762;28;20766;-69
2023/11/27 06:20:59;;;;;;;5.23;2.87;;;4.20;99.90;;;;;;5071793;28;20512;-69
2023/11/27 06:23:24;;;;;;;8.63;4.87;;;4.20;99.90;;;;;;5071677;28;20217;-69
2023/11/27 06:25:50;;;;;;;9.00;4.57;;;4.20;99.90;;;;;;5071504;28;20238;-69
2023/11/27 06:28:15;;;;;;;10.73;4.57;;;4.20;99.90;;;;;;5070757;28;20166;-69
2023/11/27 06:30:41;;;;;;;4.43;3.40;;;4.20;99.90;;;;;;5064134;28;20194;-69
2023/11/27 06:33:06;;;;;;;8.40;3.90;;;4.20;99.90;;;;;;5067103;28;20166;-69
2023/11/27 06:35:32;;;;;;;7.97;3.50;;;4.20;99.90;;;;;;5071556;28;20181;-69
2023/11/27 06:37:57;;;;;;;7.20;3.60;;;4.20;99.90;;;;;;5071800;28;20165;-69
2023/11/27 06:40:24;;;;;;;4.20;2.90;;;4.20;99.90;;;;;;5071463;28;20186;-69
2023/11/27 06:42:49;;;;;;;5.57;3.60;;;4.20;99.90;;;;;;5071602;28;20166;-69
2023/11/27 06:45:15;;;;;;;4.50;2.93;;;4.20;99.90;;;;;;5071607;28;20967;-69
2023/11/27 06:47:41;;;;;;;10.97;3.67;;;4.20;99.90;;;;;;5071262;28;20517;-68
2023/11/27 06:50:07;;;;;;;3.87;2.80;;;4.20;99.90;;;;;;5071465;28;20424;-69
2023/11/27 06:52:32;;;;;;;8.80;3.50;;;4.20;99.90;;;;;;5071336;28;20553;-68
2023/11/27 06:54:58;;;;;;;5.80;4.27;;;4.10;99.90;;;;;;5071551;28;20194;-69
2023/11/27 06:57:23;;;;;;;6.67;4.30;;;4.20;99.90;;;;;;5071329;28;20268;-69
2023/11/27 06:59:49;;;;;;;4.37;3.77;;;4.20;99.90;;;;;;5071392;28;20730;-69
2023/11/27 07:02:15;;;;;;;19.40;3.30;;;4.10;99.90;;;;;;5071327;28;20257;-69
2023/11/27 07:04:40;;;;;;;4.90;3.70;;;4.10;99.90;;;;;;5071407;28;20167;-68
2023/11/27 07:07:06;;;;;;;15.33;3.27;;;4.20;99.90;;;;;;5074578;28;20566;-68
2023/11/27 07:09:31;;;;;;;6.97;3.80;;;4.20;99.90;;;;;;5075092;28;20186;-69
2023/11/27 07:11:58;;;;;;;5.13;3.70;;;4.20;99.90;;;;;;5073593;28;20245;-69
2023/11/27 07:14:23;;;;;;;10.83;3.40;;;4.20;99.90;;;;;;5072803;28;20558;-69
2023/11/27 07:16:49;;;;;;;12.53;4.00;;;4.20;99.90;;;;;;5074697;28;20452;-68
2023/11/27 07:19:14;;;;;;;4.83;4.33;;;4.20;99.90;;;;;;5074905;28;20182;-69
2023/11/27 07:21:40;;;;;;;4.90;4.20;;;4.20;99.90;;;;;;5074901;28;20167;-69
2023/11/27 07:24:06;;;;;;;7.77;5.33;;;4.20;99.90;;;;;;5069586;28;20178;-69
2023/11/27 07:26:32;;;;;;;6.00;4.27;;;4.20;99.90;;;;;;5072924;28;20190;-69
2023/11/27 07:28:57;;;;;;;7.80;4.17;;;4.20;99.90;;;;;;5061551;28;20514;-68
2023/11/27 07:31:33;;;;;;;6.60;4.60;;;4.20;99.90;;;;;;5064235;28;20692;-68
2023/11/27 07:34:00;;;;;;;6.10;3.80;;;4.20;99.90;;;;;;5068267;28;20170;-69
2023/11/27 07:36:27;;;;;;;7.27;4.30;;;4.20;99.90;;;;;;5074248;28;20459;-69
2023/11/27 07:38:53;;;;;;;6.73;4.30;;;4.20;99.90;;;;;;5074723;28;20407;-68
2023/11/27 07:41:20;;;;;;;8.87;5.50;;;4.20;99.90;;;;;;5074739;28;20401;-68
2023/11/27 07:43:45;;;;;;;6.43;4.30;;;4.20;99.90;;;;;;5074507;28;20487;-69
2023/11/27 07:46:12;;;;;;;6.17;4.53;;;4.20;99.90;;;;;;5074389;28;20812;-69
2023/11/27 07:48:38;;;;;;;6.30;4.73;;;4.20;99.90;;;;;;5074507;28;20170;-69
2023/11/27 07:51:07;;;;;;;7.40;5.20;;;4.20;99.90;;;;;;5074344;28;20420;-69
2023/11/27 07:53:33;;;;;;;5.20;4.70;;;4.10;99.90;;;;;;5074323;28;20482;-68
2023/11/27 07:56:01;;;;;;;6.70;5.33;;;4.10;99.90;;;;;;5074411;28;20467;-69
2023/11/27 07:58:28;;;;;;;7.03;4.70;;;4.20;99.90;;;;;;5074230;28;20204;-68
2023/11/27 08:00:53;;;;;;;8.33;4.97;;;4.20;99.90;;;;;;5074263;28;20417;-69
2023/11/27 08:03:20;;;;;;;8.20;5.33;;;4.10;99.90;;;;;;5073905;28;20518;-68
2023/11/27 08:05:46;;;;;;;8.73;5.37;;;4.20;99.90;;;;;;5064073;28;20166;-68
2023/11/27 08:08:11;;;;;;;6.87;4.43;;;4.10;99.90;;;;;;5072749;28;20411;-68
2023/11/27 08:10:37;;;;;;;4.97;4.40;;;4.10;99.90;;;;;;5074120;28;20730;-69
2023/11/27 08:13:04;;;;;;;9.03;5.43;;;4.10;99.90;;;;;;5074073;28;20167;-68
2023/11/27 08:15:30;;;;;;;7.93;4.27;;;4.10;99.90;;;;;;5074297;28;20181;-68
2023/11/27 08:17:56;;;;;;;6.47;4.20;;;4.10;99.90;;;;;;5072759;28;20404;-69
2023/11/27 08:20:28;;;;;;;5.70;5.03;;;4.10;99.90;;;;;;5073818;28;20802;-69
2023/11/27 08:22:54;;;;;;;7.13;4.90;;;4.10;99.90;;;;;;5073877;28;20408;-68
2023/11/27 08:25:19;;;;;;;12.93;5.50;;;4.10;99.90;;;;;;5073804;28;20929;-68
2023/11/27 08:27:46;;;;;;;6.83;4.20;;;4.10;99.90;;;;;;5073645;28;20408;-68
2023/11/27 08:30:12;;;;;;;7.57;4.17;;;4.10;99.90;;;;;;5073628;28;20671;-68
2023/11/27 08:32:39;;;;;;;5.87;4.60;;;4.20;99.90;;;;;;5072402;28;20502;-69
2023/11/27 08:35:05;;;;;;;4.00;3.63;;;4.20;99.90;;;;;;5073692;28;20162;-69
2023/11/27 08:37:35;;;;;;;4.70;3.57;;;4.20;99.90;;;;;;5073412;28;20460;-69
2023/11/27 08:40:06;;;;;;;4.97;3.37;;;4.20;99.90;;;;;;5073507;28;20186;-69
2023/11/27 08:42:34;;;;;;;5.97;3.73;;;4.20;99.90;;;;;;5073424;28;20401;-69
2023/11/27 08:45:10;;;;;;;5.47;3.83;;;4.20;99.90;;;;;;5073466;28;20842;-69
2023/11/27 08:47:39;;;;;;;7.57;4.10;;;4.20;99.90;;;;;;5073181;28;20397;-69
2023/11/27 08:50:07;;;;;;;5.03;3.90;;;4.20;99.90;;;;;;5073316;28;20434;-69
2023/11/27 08:52:34;;;;;;;12.27;3.83;;;4.20;99.90;;;;;;5072998;28;20420;-69
2023/11/27 08:55:00;;;;;;;5.00;3.60;;;4.20;99.90;;;;;;5073241;28;20485;-69
2023/11/27 08:57:26;;;;;;;8.07;3.90;;;4.30;99.90;;;;;;5072788;28;20447;-69
2023/11/27 08:59:51;;;;;;;3.57;3.10;;;4.30;99.90;;;;;;5071948;28;20436;-69
2023/11/27 09:02:17;;;;;;;5.17;3.40;;;4.30;99.90;;;;;;5072889;28;20174;-69
2023/11/27 09:04:42;;;;;;;6.53;3.77;;;4.30;99.90;;;;;;5072894;28;20173;-69
2023/11/27 09:07:11;;;;;;;5.53;3.80;;;4.40;99.90;;;;;;5072827;28;20169;-69
2023/11/27 09:09:37;;;;;;;3.60;2.60;;;4.40;99.90;;;;;;5072931;28;20186;-69
2023/11/27 09:12:03;;;;;;;2.93;1.90;;;4.40;99.90;;;;;;5071292;28;20412;-69
2023/11/27 09:14:28;;;;;;;2.40;1.73;;;4.40;99.90;;;;;;5069121;28;20188;-69
2023/11/27 09:16:54;;;;;;;1.33;1.20;;;4.40;99.90;;;;;;5064717;28;20465;-69
2023/11/27 09:19:19;;;;;;;1.40;1.00;;;4.40;99.90;;;;;;5046475;28;20879;-69
2023/11/27 09:21:45;;;;;;;3.53;0.97;;;4.40;99.90;;;;;;5049126;28;20182;-69
2023/11/27 09:24:11;;;;;;;4.03;1.00;;;4.40;99.90;;;;;;5058981;28;20171;-69
2023/11/27 09:26:37;;;;;;;0.90;0.80;;;4.40;99.90;;;;;;5068375;28;20182;-71
2023/11/27 09:29:02;;;;;;;1.00;0.80;;;4.30;99.90;;;;;;5067193;28;20669;-69
2023/11/27 09:31:29;;;;;;;1.93;0.90;;;4.30;99.90;;;;;;5068250;28;20256;-69
2023/11/27 09:33:54;;;;;;;1.03;0.93;;;4.30;99.90;;;;;;5057066;28;20701;-68
2023/11/27 09:36:20;;;;;;;1.30;1.20;;;4.40;99.90;;;;;;5063891;28;20510;-69
2023/11/27 09:38:47;;;;;;;1.30;0.80;;;4.30;99.90;;;;;;5072588;28;20204;-69
2023/11/27 09:41:12;;;;;;;1.80;0.70;;;4.40;99.90;;;;;;5048879;28;20604;-69
2023/11/27 09:43:38;;;;;;;1.93;0.80;;;4.40;99.90;;;;;;5071108;28;20420;-69
2023/11/27 09:46:08;;;;;;;1.93;0.80;;;4.30;99.90;;;;;;5072139;28;20533;-69
2023/11/27 09:48:39;;;;;;;1.07;0.70;;;4.30;99.90;;;;;;5084986;28;20200;-69
2023/11/27 09:51:11;;;;;;;2.60;1.23;;;4.40;99.90;;;;;;5092462;28;20430;-69
2023/11/27 09:53:40;;;;;;;0.87;0.70;;;4.40;99.90;;;;;;5091993;28;20443;-68
2023/11/27 09:56:08;;;;;;;1.37;1.00;;;4.30;99.90;;;;;;5092135;28;20444;-69
2023/11/27 09:58:42;;;;;;;1.70;0.93;;;4.30;99.90;;;;;;5092016;28;20457;-69
2023/11/27 10:01:10;;;;;;;1.30;1.10;;;4.30;99.90;;;;;;5074002;28;20966;-69
2023/11/27 10:03:38;;;;;;;1.93;1.23;;;4.30;99.90;;;;;;5079696;28;20841;-69
2023/11/27 10:06:06;;;;;;;2.00;1.03;;;4.30;99.90;;;;;;5053958;28;20415;-69
2023/11/27 10:08:31;;;;;;;1.47;0.97;;;4.30;99.90;;;;;;5072347;28;20416;-69
2023/11/27 10:10:57;;;;;;;1.67;1.00;;;4.40;99.90;;;;;;5071790;28;20427;-69
2023/11/27 10:13:34;;;;;;;1.10;1.00;;;4.40;99.90;;;;;;5061378;28;20232;-69
2023/11/27 10:16:02;;;;;;;0.87;0.80;;;4.30;99.90;;;;;;5056763;28;20277;-68
2023/11/27 10:18:28;;;;;;;1.33;1.07;;;4.30;99.90;;;;;;5071925;28;20435;-69
2023/11/27 10:20:54;;;;;;;0.80;0.73;;;4.40;99.90;;;;;;5067865;28;20431;-69
2023/11/27 10:23:21;;;;;;;0.90;0.80;;;4.40;99.90;;;;;;5071835;28;20483;-69
2023/11/27 10:25:55;;;;;;;1.17;1.00;;;4.40;99.90;;;;;;5071574;28;20423;-69
2023/11/27 10:28:21;;;;;;;0.80;0.60;;;4.40;99.90;;;;;;5073041;28;20401;-69
2023/11/27 10:30:49;;;;;;;1.53;1.13;;;4.40;99.90;;;;;;5071666;28;20919;-69
2023/11/27 10:33:14;;;;;;;0.80;0.67;;;4.50;99.90;;;;;;5079362;28;20165;-69
2023/11/27 10:35:41;;;;;;;4.83;1.10;;;4.50;99.90;;;;;;5091842;28;20404;-69
2023/11/27 10:38:15;;;;;;;1.73;1.07;;;4.50;99.90;;;;;;5077006;28;20166;-69
2023/11/27 10:40:42;;;;;;;1.50;1.10;;;4.40;99.90;;;;;;5066698;28;20515;-69
2023/11/27 10:43:10;;;;;;;1.97;1.00;;;4.40;99.90;;;;;;5075675;28;20794;-69
2023/11/27 10:45:38;;;;;;;1.97;1.10;;;4.40;99.90;;;;;;5075214;28;20408;-69
2023/11/27 10:48:06;;;;;;;1.17;0.90;;;4.40;99.90;;;;;;5075408;28;20413;-69
2023/11/27 10:50:32;;;;;;;1.10;0.90;;;4.40;99.90;;;;;;5075023;28;20471;-69
2023/11/27 10:52:58;;;;;;;1.20;1.10;;;4.40;99.90;;;;;;5075299;28;20538;-69
2023/11/27 10:55:26;;;;;;;1.00;0.90;;;4.40;99.90;;;;;;5077737;28;20483;-69
2023/11/27 10:57:54;;;;;;;1.57;1.03;;;4.40;99.90;;;;;;5075733;28;20914;-69
2023/11/27 11:00:28;;;;;;;0.83;0.77;;;4.40;99.90;;;;;;5075300;28;20475;-69
2023/11/27 11:03:01;;;;;;;1.10;0.90;;;4.30;99.90;;;;;;5075477;28;20762;-69
2023/11/27 11:05:33;;;;;;;2.80;1.00;;;4.40;99.90;;;;;;5075563;28;20899;-69
2023/11/27 11:07:59;;;;;;;2.30;1.10;;;4.30;99.90;;;;;;5075199;28;20405;-69
2023/11/27 11:10:26;;;;;;;1.17;0.80;;;4.40;99.90;;;;;;5075244;28;20927;-68
2023/11/27 11:12:55;;;;;;;1.20;1.10;;;4.40;99.90;;;;;;5054062;28;20435;-70
2023/11/27 11:15:56;;;;;;;1.23;1.03;;;4.40;99.90;;;;;;5075869;28;20431;-69
2023/11/27 11:18:43;;;;;;;0.90;0.63;;;4.50;99.90;;;;;;4996400;28;20415;-69
2023/11/27 11:21:33;;;;;;;1.20;1.10;;;4.50;99.90;;;;;;5050101;28;20453;-69
2023/11/27 11:24:10;;;;;;;1.37;1.27;;;4.50;99.90;;;;;;5061275;28;20407;-69
2023/11/27 11:26:58;;;;;;;1.93;1.07;;;4.50;99.90;;;;;;5074788;28;20418;-69
2023/11/27 11:29:29;;;;;;;1.47;1.13;;;4.50;99.90;;;;;;5074916;28;20423;-69
2023/11/27 11:32:05;;;;;;;0.83;0.80;;;4.50;99.90;;;;;;5072157;28;20416;-69
2023/11/27 11:34:41;;;;;;;1.43;1.20;;;4.60;99.90;;;;;;5066855;28;20423;-69
2023/11/27 11:37:11;;;;;;;1.90;1.20;;;4.60;99.90;;;;;;5074523;28;20485;-69
2023/11/27 11:39:41;;;;;;;1.67;1.10;;;4.60;99.90;;;;;;5074683;28;20428;-69
2023/11/27 11:42:13;;;;;;;1.47;1.20;;;4.70;99.90;;;;;;5088827;28;20460;-69
2023/11/27 11:44:41;;;;;;;0.80;0.80;;;4.60;99.90;;;;;;5094982;28;20796;-69
2023/11/27 11:47:31;;;;;;;1.40;1.10;;;4.60;99.90;;;;;;5076367;28;20457;-69
2023/11/27 11:50:31;;;;;;;1.40;0.90;;;4.60;99.90;;;;;;5094823;28;20763;-69
2023/11/27 11:53:03;;;;;;;1.10;1.00;;;4.60;99.90;;;;;;5094474;28;20427;-69
2023/11/27 11:55:33;;;;;;;1.20;0.80;;;4.50;99.90;;;;;;5094686;28;20404;-69
2023/11/27 11:58:17;;;;;;;1.17;0.90;;;4.50;99.90;;;;;;5054184;28;20822;-69
2023/11/27 12:00:43;;;;;;;1.10;0.80;;;4.50;99.90;;;;;;5055836;28;20421;-69
2023/11/27 12:03:20;;;;;;;3.53;1.10;;;4.50;99.90;;;;;;5074402;28;20408;-69
2023/11/27 12:05:52;;;;;;;1.40;1.07;;;4.50;99.90;;;;;;5074153;28;20404;-69
2023/11/27 12:08:23;;;;;;;1.60;1.43;;;4.50;99.90;;;;;;5074272;28;20486;-69
2023/11/27 12:10:51;;;;;;;3.40;1.30;;;4.50;99.90;;;;;;5074204;28;20820;-69
2023/11/27 12:13:23;;;;;;;1.60;1.00;;;4.50;99.90;;;;;;5072062;28;20416;-69
2023/11/27 12:15:58;;;;;;;1.50;0.93;;;4.50;99.90;;;;;;5073450;28;20475;-69
2023/11/27 12:18:25;;;;;;;3.20;1.23;;;4.50;99.90;;;;;;5066057;28;20836;-69
2023/11/27 12:20:52;;;;;;;1.07;0.97;;;4.50;99.90;;;;;;5065686;28;20546;-69
2023/11/27 12:23:21;;;;;;;0.90;0.83;;;4.50;99.90;;;;;;5073829;28;20401;-69
2023/11/27 12:25:46;;;;;;;7.83;1.00;;;4.50;99.90;;;;;;5073465;28;20400;-69
2023/11/27 12:28:13;;;;;;;1.07;0.90;;;4.40;99.90;;;;;;5073693;28;20968;-69
2023/11/27 12:30:39;;;;;;;4.80;0.80;;;4.50;99.90;;;;;;5064671;28;20261;-70
2023/11/27 12:33:07;;;;;;;1.40;1.00;;;4.40;99.90;;;;;;5069918;28;20460;-69
2023/11/27 12:35:34;;;;;;;1.00;0.90;;;4.40;99.90;;;;;;5057047;28;20507;-69
2023/11/27 12:38:05;;;;;;;1.30;1.00;;;4.40;99.90;;;;;;5066330;28;20431;-70
2023/11/27 12:40:33;;;;;;;1.17;0.80;;;4.40;99.90;;;;;;5068701;28;20441;-70
2023/11/27 12:43:08;;;;;;;1.10;0.80;;;4.40;99.90;;;;;;5073369;28;20436;-70
2023/11/27 12:45:36;;;;;;;1.63;0.90;;;4.40;99.90;;;;;;5073261;28;20408;-70
2023/11/27 12:48:07;;;;;;;1.10;0.87;;;4.40;99.90;;;;;;5063129;28;20438;-69
2023/11/27 12:50:41;;;;;;;1.00;0.87;;;4.50;99.90;;;;;;5068280;28;20447;-69
2023/11/27 12:53:07;;;;;;;2.03;0.80;;;4.50;99.90;;;;;;5073181;28;20436;-70
2023/11/27 12:55:37;;;;;;;0.80;0.70;;;4.50;99.90;;;;;;5073455;28;20400;-70